Noelville, Canada
Current Conditions -  °F | °C
As of 7:22 AM on Friday 28 Nov 2014 (Local Time) from CYSB Reporting Station
Scattered Clouds Scattered Clouds  
Wind Chill: -23°   Ceiling: Unl
Heat Index: -8°   Visibility: 15mi
Dew Point: -11°   Wind: 8mph
Humidity: 84%   Direction: 320°NW
Pressure: 30.18"   Gusts: NA
Location:  46.13°N, 80.43°W
Report Text: CYSB 281222Z 32007KT 15SM SCT005 SCT030 M22/M24 A3018 RMK SF3SC1 SLP251
Loading
Personal Weather Stations






























Interactive Weather Map New forecast layout! Learn more

10-Day Weather Forecast

Advertisements
Track Severe Weather on mobile